デンパサール国際空港の過去48時間の天気

デンパサール国際空港 (Ngurah Rai International Airport)

現在時刻: 6/25 21:26 WITA (6/25 13:26 UTC) 以下の時間は現地時間です。

過去48時間のMETAR気象情報
時間 風向 風速(m/s) 視程 気温(℃) 湿度(%) 気圧(hPa) 天気現象
25 21:00 東南東 8 10km以上 26 79 1012
25 20:30 東南東 8 10km以上 27 74 1012
25 20:00 東南東 8 10km以上 27 74 1012
25 19:30 東南東 8 10km以上 27 74 1012
25 19:00 東南東 8 10km以上 27 74 1011
25 18:30 東南東 7 10km以上 27 74 1011
25 18:00 東南東 8 10km以上 27 74 1011
25 17:30 東南東 9 10km以上 27 74 1010
25 17:00 東南東 8 10km以上 27 74 1010
25 16:30 8 10km以上 28 70 1010
25 16:00 8 10km以上 28 70 1010
25 15:30 東南東 8 10km以上 28 74 1010
25 15:00 9 10km以上 28 74 1010
25 14:30 東南東 10 10km以上 29 70 1010
25 14:00 9 10km以上 28 74 1010
25 13:30 東南東 10 10km以上 28 70 1011
25 13:00 東南東 11 10km以上 29 66 1011
25 12:30 10 10km以上 28 70 1011
25 12:00 10 10km以上 28 70 1011
25 11:30 10 10km以上 28 70 1012
25 11:00 9 10km以上 28 74 1012
25 10:30 10 10km以上 28 70 1012
25 10:00 東南東 10 10km以上 28 74 1012
25 09:30 東南東 10 10km以上 27 79 1012
25 09:00 9 10km以上 27 79 1012
25 08:30 東南東 8 10km以上 27 79 1012
25 08:00 東南東 8 10km以上 27 74 1012
25 07:30 東南東 8 10km以上 26 84 1012
25 07:00 東南東 10 10km以上 26 79 1012
25 06:30 東南東 9 10km以上 26 84 1011
25 06:00 東南東 8 10km以上 26 84 1011
25 05:30 東南東 8 10km以上 26 79 1011
25 05:00 東南東 6 10km以上 26 79 1011
25 04:30 東南東 7 10km以上 26 79 1011
25 04:00 東南東 8 10km以上 26 79 1011
25 03:30 東南東 6 10km以上 26 79 1011
25 03:00 東南東 6 10km以上 26 84 1011
25 02:30 東南東 5 10km以上 26 84 1012
25 02:00 東南東 6 10km以上 26 84 1012
25 01:30 5 10km以上 26 84 1012
25 01:00 東南東 6 10km以上 26 79 1012
25 00:30 東南東 6 10km以上 26 79 1012
25 00:00 東南東 6 10km以上 26 79 1012
24 23:00 東南東 8 10km以上 27 74 1012
24 22:30 東南東 7 10km以上 27 74 1013
24 22:00 7 10km以上 27 79 1013
24 21:30 6 10km以上 27 79 1012
24 21:00 7 10km以上 27 79 1012
24 20:30 東南東 7 10km以上 27 79 1012
24 20:00 7 10km以上 27 79 1011
24 19:30 7 10km以上 27 79 1011
24 19:00 7 10km以上 27 79 1011
24 18:30 7 10km以上 27 79 1010
24 18:00 8 10km以上 27 79 1010
24 17:30 8 10km以上 27 79 1010
24 17:00 9 10km以上 28 74 1009
24 16:30 9 10km以上 28 74 1009
24 16:00 9 10km以上 28 70 1009
24 15:30 9 10km以上 28 74 1010
24 15:00 東南東 10 10km以上 29 70 1009
24 14:30 東南東 10 10km以上 29 74 1010
24 14:00 東南東 9 10km以上 29 74 1010
24 13:30 10 10km以上 29 74 1010
24 13:00 10 10km以上 29 70 1010
24 12:30 10 10km以上 28 74 1011
24 12:00 10 10km以上 28 79 1011
24 11:30 10 10km以上 29 70 1011
24 11:00 9 10km以上 28 74 1012
24 10:30 9 10km以上 28 74 1012
24 10:00 8 10km以上 27 79 1012
24 09:30 8 10km以上 27 79 1012
24 09:00 7 10km以上 27 79 1012
24 08:30 東南東 8 10km以上 27 79 1012
24 08:00 東南東 8 7000m 27 79 1012 弱い雨
24 07:30 東南東 8 10km以上 27 79 1012
24 07:00 東南東 6 10km以上 27 79 1012
24 06:30 東南東 7 10km以上 27 79 1011
24 06:00 東南東 7 10km以上 27 79 1011
24 05:30 東南東 7 10km以上 27 79 1011
24 05:00 東南東 7 10km以上 27 79 1011
24 04:30 東南東 7 10km以上 26 84 1011
24 04:00 東南東 7 10km以上 26 84 1011
24 03:30 東南東 6 10km以上 26 84 1011
24 03:00 東南東 6 10km以上 26 84 1011
24 02:30 東南東 6 10km以上 27 79 1012
24 02:00 6 10km以上 27 79 1012
24 01:30 6 10km以上 26 84 1012
24 01:00 東南東 7 10km以上 26 84 1012
24 00:30 6 10km以上 27 79 1012
24 00:00 6 10km以上 27 79 1012
23 23:30 7 10km以上 27 79 1012
23 23:00 6 10km以上 27 79 1012
23 22:30 7 10km以上 27 79 1012
23 22:00 7 10km以上 27 79 1012
23 21:30 7 10km以上 27 79 1012
WADD 251300Z 11015KT 9999 FEW017 26/22 Q1012 NOSIG
WADD 251230Z 11016KT 9999 FEW017 27/22 Q1012 NOSIG
WADD 251200Z 11015KT 9999 FEW017 27/22 Q1012 NOSIG
WADD 251130Z 11016KT 9999 FEW017 27/22 Q1012 NOSIG
WADD 251100Z 12016KT 9999 FEW017 27/22 Q1011 NOSIG
WADD 251030Z 11014KT 9999 FEW017 27/22 Q1011 NOSIG
WADD 251000Z 11015KT 9999 FEW017 27/22 Q1011 NOSIG
WADD 250930Z 11018KT 9999 FEW017 27/22 Q1010 NOSIG
WADD 250900Z 11016KT 9999 FEW017 27/22 Q1010 NOSIG
WADD 250830Z 10016KT 9999 FEW017 28/22 Q1010 NOSIG
WADD 250800Z 10016KT 9999 SCT017 28/22 Q1010 NOSIG
WADD 250730Z 11015KT 9999 SCT017 28/23 Q1010 NOSIG
WADD 250700Z 10017KT 9999 SCT017 28/23 Q1010 NOSIG
WADD 250630Z 11020KT 9999 SCT017 29/23 Q1010 NOSIG
WADD 250600Z 10018KT 9999 FEW017 28/23 Q1010 NOSIG
WADD 250530Z 11020KT 9999 FEW017 28/22 Q1011 NOSIG
WADD 250500Z 11021KT 9999 FEW017 29/22 Q1011 NOSIG
WADD 250430Z 10019KT 9999 FEW017 28/22 Q1011 NOSIG
WADD 250400Z 10020KT 9999 FEW017 28/22 Q1011 NOSIG
WADD 250330Z 10020KT 9999 FEW017 28/22 Q1012 NOSIG
WADD 250300Z 10018KT 9999 SCT017 28/23 Q1012 NOSIG
WADD 250230Z 10019KT 9999 SCT017 28/22 Q1012 NOSIG
WADD 250200Z 11019KT 9999 FEW017 28/23 Q1012 NOSIG
WADD 250130Z 11019KT 9999 FEW017 27/23 Q1012 NOSIG
WADD 250100Z 10017KT 9999 SCT017 27/23 Q1012 NOSIG
WADD 250030Z 11015KT 9999 SCT017 27/23 Q1012 NOSIG
WADD 250000Z 11016KT 9999 FEW016CB SCT017 27/22 Q1012 NOSIG
WADD 242330Z 11016KT 9999 FEW016CB SCT017 26/23 Q1012 NOSIG
WADD 242300Z 12019KT 9999 FEW016CB SCT017 26/22 Q1012 NOSIG
WADD 242230Z 12017KT 9999 FEW016CB SCT017 26/23 Q1011 NOSIG
WADD 242200Z 12015KT 9999 SCT017 26/23 Q1011 NOSIG
WADD 242130Z 11015KT 9999 SCT017 26/22 Q1011 NOSIG
WADD 242100Z 12012KT 9999 FEW020 26/22 Q1011 NOSIG
WADD 242030Z 12013KT 9999 SCT017 26/22 Q1011 NOSIG
WADD 242000Z 11015KT 9999 SCT017 26/22 Q1011 NOSIG
WADD 241930Z 11012KT 9999 SCT017 26/22 Q1011 NOSIG
WADD 241900Z 11011KT 9999 SCT017 26/23 Q1011 NOSIG
WADD 241830Z 11009KT 9999 FEW017 26/23 Q1012 NOSIG
WADD 241800Z 11011KT 9999 FEW017 26/23 Q1012 NOSIG
WADD 241730Z 10010KT 9999 FEW017 26/23 Q1012 NOSIG
WADD 241700Z 11011KT 9999 FEW017 26/22 Q1012 NOSIG
WADD 241630Z 11012KT 9999 FEW017 26/22 Q1012 NOSIG
WADD 241600Z 11012KT 9999 FEW017 26/22 Q1012 NOSIG
WADD 241500Z 11015KT 9999 FEW017 27/22 Q1012 NOSIG
WADD 241430Z 11013KT 9999 FEW017 27/22 Q1013 NOSIG
WADD 241400Z 10014KT 9999 FEW017 27/23 Q1013 NOSIG
WADD 241330Z 10011KT 9999 FEW017 27/23 Q1012 NOSIG
WADD 241300Z 10013KT 9999 FEW017 27/23 Q1012 NOSIG
WADD 241230Z 11014KT 9999 FEW017 27/23 Q1012 NOSIG
WADD 241200Z 10013KT 9999 FEW017 27/23 Q1011 NOSIG
WADD 241130Z 10013KT 9999 FEW017 27/23 Q1011 NOSIG
WADD 241100Z 10013KT 9999 FEW017 27/23 Q1011 NOSIG
WADD 241030Z 10013KT 9999 FEW017 27/23 Q1010 NOSIG
WADD 241000Z 10015KT 9999 FEW017 27/23 Q1010 NOSIG
WADD 240930Z 10016KT 9999 FEW017 27/23 Q1010 NOSIG
WADD 240900Z 09017KT 9999 FEW017 28/23 Q1009 NOSIG
WADD 240830Z 10017KT 9999 FEW017 28/23 Q1009 NOSIG
WADD 240800Z 10017KT 9999 FEW017 28/22 Q1009 NOSIG
WADD 240730Z 10017KT 9999 FEW017 28/23 Q1010 NOSIG
WADD 240700Z 11019KT 9999 FEW017 29/23 Q1009 NOSIG
WADD 240630Z 11020KT 9999 SCT017 29/24 Q1010 NOSIG
WADD 240600Z 11018KT 9999 SCT017 29/24 Q1010 NOSIG
WADD 240530Z 09019KT 9999 FEW017 29/24 Q1010 NOSIG
WADD 240500Z 10019KT 9999 SCT017 29/23 Q1010 NOSIG
WADD 240430Z 10019KT 9999 SCT017 28/23 Q1011 NOSIG
WADD 240400Z 10020KT 9999 SCT017 28/24 Q1011 NOSIG
WADD 240330Z 10019KT 9999 SCT017 29/23 Q1011 NOSIG
WADD 240300Z 10018KT 9999 BKN017 28/23 Q1012 NOSIG
WADD 240230Z 10018KT 9999 BKN017 28/23 Q1012 NOSIG
WADD 240200Z 10015KT 9999 BKN017 27/23 Q1012 NOSIG
WADD 240130Z 10016KT 9999 BKN017 27/23 Q1012 NOSIG
WADD 240100Z 10014KT 9999 BKN017 27/23 Q1012 NOSIG
WADD 240030Z 11016KT 9999 BKN017 27/23 Q1012 NOSIG
WADD 240000Z 11015KT 7000 -RA BKN015 27/23 Q1012 NOSIG
WADD 232330Z 11016KT 9999 BKN018 BKN022 27/23 Q1012 NOSIG
WADD 232300Z 11012KT 9999 BKN017 27/23 Q1012 NOSIG
WADD 232230Z 11013KT 9999 SCT017 27/23 Q1011 NOSIG
WADD 232200Z 11014KT 9999 FEW017 27/23 Q1011 NOSIG
WADD 232130Z 11014KT 9999 FEW017 27/23 Q1011 NOSIG
WADD 232100Z 11013KT 9999 BKN017 27/23 Q1011 NOSIG
WADD 232030Z 12014KT 9999 BKN017 26/23 Q1011 NOSIG
WADD 232000Z 12014KT 9999 SCT017 26/23 Q1011 NOSIG
WADD 231930Z 11012KT 9999 FEW017 26/23 Q1011 NOSIG
WADD 231900Z 11012KT 9999 FEW017 26/23 Q1011 NOSIG
WADD 231830Z 11012KT 9999 FEW017 27/23 Q1012 NOSIG
WADD 231800Z 10012KT 9999 FEW017 27/23 Q1012 NOSIG
WADD 231730Z 10012KT 9999 SCT017 26/23 Q1012 NOSIG
WADD 231700Z 11014KT 9999 SCT017 26/23 Q1012 NOSIG
WADD 231630Z 10012KT 9999 SCT017 27/23 Q1012 NOSIG
WADD 231600Z 10012KT 9999 SCT017 27/23 Q1012 NOSIG
WADD 231530Z 10014KT 9999 SCT017 27/23 Q1012 NOSIG
WADD 231500Z 09012KT 9999 SCT017 27/23 Q1012 NOSIG
WADD 231430Z 10013KT 9999 SCT017 27/23 Q1012 NOSIG
WADD 231400Z 10013KT 9999 FEW017 27/23 Q1012 NOSIG
WADD 231330Z 10013KT 9999 FEW017 27/23 Q1012 NOSIG